sensor_id;sensor_type;location;lat;lon;timestamp;P1;durP1;ratioP1;P2;durP2;ratioP2
70970;SDS011;58632;51.718;19.446;2022-09-09T00:04:57;11.20;;;6.30;;
70970;SDS011;58632;51.718;19.446;2022-09-09T00:10:00;9.10;;;5.70;;
70970;SDS011;58632;51.718;19.446;2022-09-09T00:15:14;10.50;;;5.90;;
70970;SDS011;58632;51.718;19.446;2022-09-09T00:17:48;12.90;;;7.10;;
70970;SDS011;58632;51.718;19.446;2022-09-09T00:20:21;8.60;;;6.20;;
70970;SDS011;58632;51.718;19.446;2022-09-09T00:22:53;9.90;;;5.80;;
70970;SDS011;58632;51.718;19.446;2022-09-09T00:25:28;10.50;;;6.70;;
70970;SDS011;58632;51.718;19.446;2022-09-09T00:27:59;10.50;;;7.00;;
70970;SDS011;58632;51.718;19.446;2022-09-09T00:30:27;10.70;;;6.30;;
70970;SDS011;58632;51.718;19.446;2022-09-09T00:32:59;10.50;;;7.10;;
70970;SDS011;58632;51.718;19.446;2022-09-09T00:35:36;14.30;;;6.90;;
70970;SDS011;58632;51.718;19.446;2022-09-09T00:38:15;9.70;;;6.40;;
70970;SDS011;58632;51.718;19.446;2022-09-09T00:43:35;9.90;;;6.50;;
70970;SDS011;58632;51.718;19.446;2022-09-09T00:46:13;8.30;;;6.00;;
70970;SDS011;58632;51.718;19.446;2022-09-09T00:54:09;14.60;;;7.80;;
70970;SDS011;58632;51.718;19.446;2022-09-09T00:56:49;13.20;;;6.80;;
70970;SDS011;58632;51.718;19.446;2022-09-09T00:59:20;10.50;;;7.00;;
70970;SDS011;58632;51.718;19.446;2022-09-09T01:02:13;11.30;;;6.50;;
70970;SDS011;58632;51.718;19.446;2022-09-09T01:04:53;12.80;;;7.00;;
70970;SDS011;58632;51.718;19.446;2022-09-09T01:07:19;10.70;;;6.50;;
70970;SDS011;58632;51.718;19.446;2022-09-09T01:12:43;11.90;;;6.70;;
70970;SDS011;58632;51.718;19.446;2022-09-09T01:15:15;11.80;;;6.60;;
70970;SDS011;58632;51.718;19.446;2022-09-09T01:17:49;11.50;;;7.40;;
70970;SDS011;58632;51.718;19.446;2022-09-09T01:20:44;9.70;;;6.60;;
70970;SDS011;58632;51.718;19.446;2022-09-09T01:23:25;11.80;;;7.10;;
70970;SDS011;58632;51.718;19.446;2022-09-09T01:26:09;11.90;;;7.40;;
70970;SDS011;58632;51.718;19.446;2022-09-09T01:28:46;11.90;;;7.40;;
70970;SDS011;58632;51.718;19.446;2022-09-09T01:31:19;10.00;;;6.90;;
70970;SDS011;58632;51.718;19.446;2022-09-09T01:33:47;10.50;;;6.60;;
70970;SDS011;58632;51.718;19.446;2022-09-09T01:39:05;11.60;;;6.90;;
70970;SDS011;58632;51.718;19.446;2022-09-09T01:41:31;10.20;;;6.40;;
70970;SDS011;58632;51.718;19.446;2022-09-09T01:43:57;10.70;;;7.70;;
70970;SDS011;58632;51.718;19.446;2022-09-09T01:46:22;9.80;;;6.60;;
70970;SDS011;58632;51.718;19.446;2022-09-09T01:48:52;12.20;;;6.70;;
70970;SDS011;58632;51.718;19.446;2022-09-09T01:51:20;13.30;;;7.10;;
70970;SDS011;58632;51.718;19.446;2022-09-09T01:53:45;12.30;;;6.70;;
70970;SDS011;58632;51.718;19.446;2022-09-09T01:59:03;11.80;;;8.10;;
70970;SDS011;58632;51.718;19.446;2022-09-09T02:01:49;9.30;;;6.70;;
70970;SDS011;58632;51.718;19.446;2022-09-09T02:04:43;13.90;;;7.30;;
70970;SDS011;58632;51.718;19.446;2022-09-09T02:10:01;9.50;;;6.40;;
70970;SDS011;58632;51.718;19.446;2022-09-09T02:12:53;10.90;;;7.60;;
70970;SDS011;58632;51.718;19.446;2022-09-09T02:15:35;10.60;;;6.90;;
70970;SDS011;58632;51.718;19.446;2022-09-09T02:18:11;9.40;;;6.30;;
70970;SDS011;58632;51.718;19.446;2022-09-09T02:20:40;11.20;;;7.30;;
70970;SDS011;58632;51.718;19.446;2022-09-09T02:23:08;11.80;;;7.00;;
70970;SDS011;58632;51.718;19.446;2022-09-09T02:25:36;13.30;;;7.50;;
70970;SDS011;58632;51.718;19.446;2022-09-09T02:30:33;10.10;;;6.70;;
70970;SDS011;58632;51.718;19.446;2022-09-09T02:33:01;11.60;;;7.60;;
70970;SDS011;58632;51.718;19.446;2022-09-09T02:35:34;11.90;;;7.90;;
70970;SDS011;58632;51.718;19.446;2022-09-09T02:38:04;12.30;;;8.20;;
70970;SDS011;58632;51.718;19.446;2022-09-09T02:40:34;11.50;;;6.90;;
70970;SDS011;58632;51.718;19.446;2022-09-09T02:43:00;16.60;;;8.10;;
70970;SDS011;58632;51.718;19.446;2022-09-09T02:45:30;15.60;;;8.00;;
70970;SDS011;58632;51.718;19.446;2022-09-09T02:48:22;10.60;;;8.00;;
70970;SDS011;58632;51.718;19.446;2022-09-09T02:50:58;13.60;;;7.70;;
70970;SDS011;58632;51.718;19.446;2022-09-09T02:53:39;12.50;;;8.50;;
70970;SDS011;58632;51.718;19.446;2022-09-09T02:56:14;14.20;;;7.60;;
70970;SDS011;58632;51.718;19.446;2022-09-09T02:58:42;16.40;;;7.80;;
70970;SDS011;58632;51.718;19.446;2022-09-09T03:01:08;9.70;;;7.40;;
70970;SDS011;58632;51.718;19.446;2022-09-09T03:03:34;11.80;;;8.80;;
70970;SDS011;58632;51.718;19.446;2022-09-09T03:06:00;11.60;;;7.10;;
70970;SDS011;58632;51.718;19.446;2022-09-09T03:08:26;13.50;;;8.30;;
70970;SDS011;58632;51.718;19.446;2022-09-09T03:10:55;10.90;;;7.60;;
70970;SDS011;58632;51.718;19.446;2022-09-09T03:13:24;11.60;;;7.80;;
70970;SDS011;58632;51.718;19.446;2022-09-09T03:15:50;14.30;;;7.70;;
70970;SDS011;58632;51.718;19.446;2022-09-09T03:18:16;9.90;;;7.90;;
70970;SDS011;58632;51.718;19.446;2022-09-09T03:20:42;12.10;;;7.80;;
70970;SDS011;58632;51.718;19.446;2022-09-09T03:23:08;11.50;;;7.70;;
70970;SDS011;58632;51.718;19.446;2022-09-09T03:25:34;14.40;;;8.30;;
70970;SDS011;58632;51.718;19.446;2022-09-09T03:28:00;13.10;;;7.90;;
70970;SDS011;58632;51.718;19.446;2022-09-09T03:30:27;14.90;;;8.70;;
70970;SDS011;58632;51.718;19.446;2022-09-09T03:35:20;11.90;;;7.50;;
70970;SDS011;58632;51.718;19.446;2022-09-09T03:37:46;10.70;;;8.10;;
70970;SDS011;58632;51.718;19.446;2022-09-09T03:40:12;15.00;;;9.20;;
70970;SDS011;58632;51.718;19.446;2022-09-09T03:42:38;11.00;;;7.90;;
70970;SDS011;58632;51.718;19.446;2022-09-09T03:45:05;15.30;;;8.20;;
70970;SDS011;58632;51.718;19.446;2022-09-09T03:47:34;13.50;;;8.00;;
70970;SDS011;58632;51.718;19.446;2022-09-09T03:49:59;12.90;;;8.80;;
70970;SDS011;58632;51.718;19.446;2022-09-09T03:52:25;15.10;;;8.90;;
70970;SDS011;58632;51.718;19.446;2022-09-09T03:54:52;11.90;;;9.10;;
70970;SDS011;58632;51.718;19.446;2022-09-09T03:57:19;13.90;;;8.90;;
70970;SDS011;58632;51.718;19.446;2022-09-09T03:59:45;15.60;;;9.90;;
70970;SDS011;58632;51.718;19.446;2022-09-09T04:02:11;13.60;;;9.40;;
70970;SDS011;58632;51.718;19.446;2022-09-09T04:04:36;15.30;;;9.30;;
70970;SDS011;58632;51.718;19.446;2022-09-09T04:07:02;16.60;;;10.20;;
70970;SDS011;58632;51.718;19.446;2022-09-09T04:09:31;17.60;;;10.60;;
70970;SDS011;58632;51.718;19.446;2022-09-09T04:11:57;20.70;;;10.80;;
70970;SDS011;58632;51.718;19.446;2022-09-09T04:14:23;21.80;;;11.50;;
70970;SDS011;58632;51.718;19.446;2022-09-09T04:16:53;24.20;;;12.10;;
70970;SDS011;58632;51.718;19.446;2022-09-09T04:19:18;23.00;;;12.20;;
70970;SDS011;58632;51.718;19.446;2022-09-09T04:21:44;20.20;;;11.30;;
70970;SDS011;58632;51.718;19.446;2022-09-09T04:24:10;24.80;;;12.00;;
70970;SDS011;58632;51.718;19.446;2022-09-09T04:26:36;20.60;;;11.50;;
70970;SDS011;58632;51.718;19.446;2022-09-09T04:29:03;21.30;;;11.30;;
70970;SDS011;58632;51.718;19.446;2022-09-09T04:31:29;22.20;;;11.50;;
70970;SDS011;58632;51.718;19.446;2022-09-09T04:33:55;35.00;;;13.30;;
70970;SDS011;58632;51.718;19.446;2022-09-09T04:36:21;26.10;;;13.60;;
70970;SDS011;58632;51.718;19.446;2022-09-09T04:38:47;25.70;;;12.20;;
70970;SDS011;58632;51.718;19.446;2022-09-09T04:41:14;23.60;;;12.40;;
70970;SDS011;58632;51.718;19.446;2022-09-09T04:43:41;29.70;;;12.90;;
70970;SDS011;58632;51.718;19.446;2022-09-09T04:46:07;25.10;;;13.90;;
70970;SDS011;58632;51.718;19.446;2022-09-09T04:48:34;21.00;;;13.30;;
70970;SDS011;58632;51.718;19.446;2022-09-09T04:51:01;20.20;;;11.70;;
70970;SDS011;58632;51.718;19.446;2022-09-09T04:53:29;28.00;;;13.10;;
70970;SDS011;58632;51.718;19.446;2022-09-09T04:56:04;22.20;;;12.60;;
70970;SDS011;58632;51.718;19.446;2022-09-09T05:01:08;19.50;;;12.20;;
70970;SDS011;58632;51.718;19.446;2022-09-09T05:03:35;20.80;;;12.60;;
70970;SDS011;58632;51.718;19.446;2022-09-09T05:06:08;20.20;;;12.60;;
70970;SDS011;58632;51.718;19.446;2022-09-09T05:08:39;18.00;;;11.80;;
70970;SDS011;58632;51.718;19.446;2022-09-09T05:11:13;19.90;;;12.60;;
70970;SDS011;58632;51.718;19.446;2022-09-09T05:13:45;20.20;;;13.00;;
70970;SDS011;58632;51.718;19.446;2022-09-09T05:16:12;19.90;;;13.00;;
70970;SDS011;58632;51.718;19.446;2022-09-09T05:18:39;19.90;;;12.60;;
70970;SDS011;58632;51.718;19.446;2022-09-09T05:21:06;17.40;;;12.70;;
70970;SDS011;58632;51.718;19.446;2022-09-09T05:25:59;18.00;;;12.10;;
70970;SDS011;58632;51.718;19.446;2022-09-09T05:28:26;19.30;;;12.80;;
70970;SDS011;58632;51.718;19.446;2022-09-09T05:31:05;20.20;;;13.20;;
70970;SDS011;58632;51.718;19.446;2022-09-09T05:33:37;19.10;;;12.60;;
70970;SDS011;58632;51.718;19.446;2022-09-09T05:36:06;20.60;;;13.00;;
70970;SDS011;58632;51.718;19.446;2022-09-09T05:38:34;15.90;;;12.30;;
70970;SDS011;58632;51.718;19.446;2022-09-09T05:41:01;17.00;;;12.30;;
70970;SDS011;58632;51.718;19.446;2022-09-09T05:43:28;17.30;;;12.50;;
70970;SDS011;58632;51.718;19.446;2022-09-09T05:46:01;18.70;;;13.00;;
70970;SDS011;58632;51.718;19.446;2022-09-09T05:48:33;16.30;;;13.00;;
70970;SDS011;58632;51.718;19.446;2022-09-09T05:51:01;15.50;;;12.50;;
70970;SDS011;58632;51.718;19.446;2022-09-09T05:53:27;15.90;;;12.70;;
70970;SDS011;58632;51.718;19.446;2022-09-09T05:55:58;14.70;;;11.40;;
70970;SDS011;58632;51.718;19.446;2022-09-09T05:58:25;16.10;;;12.30;;
70970;SDS011;58632;51.718;19.446;2022-09-09T06:00:50;15.00;;;12.90;;
70970;SDS011;58632;51.718;19.446;2022-09-09T06:03:16;17.80;;;12.60;;
70970;SDS011;58632;51.718;19.446;2022-09-09T06:05:42;14.50;;;12.60;;
70970;SDS011;58632;51.718;19.446;2022-09-09T06:08:08;15.30;;;12.80;;
70970;SDS011;58632;51.718;19.446;2022-09-09T06:10:34;15.20;;;12.40;;
70970;SDS011;58632;51.718;19.446;2022-09-09T06:13:00;14.20;;;11.70;;
70970;SDS011;58632;51.718;19.446;2022-09-09T06:15:25;16.00;;;12.40;;
70970;SDS011;58632;51.718;19.446;2022-09-09T06:17:55;13.80;;;11.70;;
70970;SDS011;58632;51.718;19.446;2022-09-09T06:20:21;15.30;;;12.60;;
70970;SDS011;58632;51.718;19.446;2022-09-09T06:22:47;14.90;;;11.70;;
70970;SDS011;58632;51.718;19.446;2022-09-09T06:25:13;14.30;;;11.90;;
70970;SDS011;58632;51.718;19.446;2022-09-09T06:27:40;14.00;;;11.60;;
70970;SDS011;58632;51.718;19.446;2022-09-09T06:30:07;13.80;;;11.40;;
70970;SDS011;58632;51.718;19.446;2022-09-09T06:32:34;15.80;;;12.00;;
70970;SDS011;58632;51.718;19.446;2022-09-09T06:35:03;13.40;;;12.00;;
70970;SDS011;58632;51.718;19.446;2022-09-09T06:39:55;14.40;;;11.80;;
70970;SDS011;58632;51.718;19.446;2022-09-09T06:42:20;13.60;;;11.60;;
70970;SDS011;58632;51.718;19.446;2022-09-09T06:44:46;13.80;;;11.90;;
70970;SDS011;58632;51.718;19.446;2022-09-09T06:47:12;16.20;;;11.90;;
70970;SDS011;58632;51.718;19.446;2022-09-09T06:49:38;13.40;;;11.60;;
70970;SDS011;58632;51.718;19.446;2022-09-09T06:52:04;13.60;;;12.20;;
70970;SDS011;58632;51.718;19.446;2022-09-09T06:54:30;13.30;;;11.60;;
70970;SDS011;58632;51.718;19.446;2022-09-09T06:56:55;13.40;;;11.30;;
70970;SDS011;58632;51.718;19.446;2022-09-09T06:59:21;14.70;;;12.00;;
70970;SDS011;58632;51.718;19.446;2022-09-09T07:01:47;14.40;;;11.90;;
70970;SDS011;58632;51.718;19.446;2022-09-09T07:04:13;14.80;;;11.70;;
70970;SDS011;58632;51.718;19.446;2022-09-09T07:06:40;17.40;;;12.70;;
70970;SDS011;58632;51.718;19.446;2022-09-09T07:09:09;13.10;;;10.80;;
70970;SDS011;58632;51.718;19.446;2022-09-09T07:11:40;13.40;;;10.30;;
70970;SDS011;58632;51.718;19.446;2022-09-09T07:14:08;12.90;;;11.10;;
70970;SDS011;58632;51.718;19.446;2022-09-09T07:16:36;12.20;;;11.00;;
70970;SDS011;58632;51.718;19.446;2022-09-09T07:19:03;12.10;;;10.70;;
70970;SDS011;58632;51.718;19.446;2022-09-09T07:23:56;12.50;;;10.40;;
70970;SDS011;58632;51.718;19.446;2022-09-09T07:26:23;11.10;;;9.90;;
70970;SDS011;58632;51.718;19.446;2022-09-09T07:28:51;12.00;;;10.00;;
70970;SDS011;58632;51.718;19.446;2022-09-09T07:31:19;11.60;;;9.60;;
70970;SDS011;58632;51.718;19.446;2022-09-09T07:33:46;10.10;;;9.00;;
70970;SDS011;58632;51.718;19.446;2022-09-09T07:36:15;12.90;;;9.30;;
70970;SDS011;58632;51.718;19.446;2022-09-09T07:38:43;12.20;;;9.50;;
70970;SDS011;58632;51.718;19.446;2022-09-09T07:41:14;12.90;;;9.80;;
70970;SDS011;58632;51.718;19.446;2022-09-09T07:43:45;15.30;;;10.70;;
70970;SDS011;58632;51.718;19.446;2022-09-09T07:46:14;11.30;;;8.40;;
70970;SDS011;58632;51.718;19.446;2022-09-09T07:48:48;10.80;;;8.00;;
70970;SDS011;58632;51.718;19.446;2022-09-09T07:51:20;11.90;;;8.20;;
70970;SDS011;58632;51.718;19.446;2022-09-09T07:53:48;9.50;;;8.30;;
70970;SDS011;58632;51.718;19.446;2022-09-09T07:56:18;9.50;;;8.10;;
70970;SDS011;58632;51.718;19.446;2022-09-09T07:58:44;7.90;;;7.10;;
70970;SDS011;58632;51.718;19.446;2022-09-09T08:01:21;9.40;;;7.70;;
70970;SDS011;58632;51.718;19.446;2022-09-09T08:03:56;19.40;;;14.30;;
70970;SDS011;58632;51.718;19.446;2022-09-09T08:06:24;15.90;;;12.30;;
70970;SDS011;58632;51.718;19.446;2022-09-09T08:08:51;10.50;;;7.30;;
70970;SDS011;58632;51.718;19.446;2022-09-09T08:11:18;7.90;;;6.40;;
70970;SDS011;58632;51.718;19.446;2022-09-09T08:13:44;7.30;;;6.60;;
70970;SDS011;58632;51.718;19.446;2022-09-09T08:16:11;10.00;;;6.90;;
70970;SDS011;58632;51.718;19.446;2022-09-09T08:18:39;9.90;;;6.40;;
70970;SDS011;58632;51.718;19.446;2022-09-09T08:21:09;7.40;;;6.40;;
70970;SDS011;58632;51.718;19.446;2022-09-09T08:23:38;8.40;;;6.40;;
70970;SDS011;58632;51.718;19.446;2022-09-09T08:26:07;6.90;;;6.10;;
70970;SDS011;58632;51.718;19.446;2022-09-09T08:28:40;7.30;;;6.60;;
70970;SDS011;58632;51.718;19.446;2022-09-09T08:31:07;7.10;;;6.40;;
70970;SDS011;58632;51.718;19.446;2022-09-09T08:33:33;7.40;;;6.60;;
70970;SDS011;58632;51.718;19.446;2022-09-09T08:35:59;7.50;;;6.50;;
70970;SDS011;58632;51.718;19.446;2022-09-09T08:38:24;7.40;;;6.70;;
70970;SDS011;58632;51.718;19.446;2022-09-09T08:40:50;7.80;;;7.00;;
70970;SDS011;58632;51.718;19.446;2022-09-09T08:43:24;7.20;;;6.50;;
70970;SDS011;58632;51.718;19.446;2022-09-09T08:45:56;5.70;;;5.20;;
70970;SDS011;58632;51.718;19.446;2022-09-09T08:48:46;8.20;;;5.80;;
70970;SDS011;58632;51.718;19.446;2022-09-09T08:51:14;6.70;;;5.40;;
70970;SDS011;58632;51.718;19.446;2022-09-09T08:56:16;6.80;;;5.40;;
70970;SDS011;58632;51.718;19.446;2022-09-09T08:58:50;7.50;;;5.70;;
70970;SDS011;58632;51.718;19.446;2022-09-09T09:12:43;6.50;;;5.60;;
70970;SDS011;58632;51.718;19.446;2022-09-09T09:15:19;5.60;;;4.60;;
70970;SDS011;58632;51.718;19.446;2022-09-09T09:17:48;6.70;;;4.30;;
70970;SDS011;58632;51.718;19.446;2022-09-09T09:20:14;5.90;;;5.20;;
70970;SDS011;58632;51.718;19.446;2022-09-09T09:22:48;7.00;;;5.20;;
70970;SDS011;58632;51.718;19.446;2022-09-09T09:30:18;7.10;;;5.20;;
70970;SDS011;58632;51.718;19.446;2022-09-09T09:35:28;6.40;;;4.50;;
70970;SDS011;58632;51.718;19.446;2022-09-09T09:37:54;5.90;;;5.00;;
70970;SDS011;58632;51.718;19.446;2022-09-09T09:40:20;8.40;;;5.30;;
70970;SDS011;58632;51.718;19.446;2022-09-09T09:42:57;6.80;;;5.30;;
70970;SDS011;58632;51.718;19.446;2022-09-09T09:45:41;5.70;;;5.20;;
70970;SDS011;58632;51.718;19.446;2022-09-09T09:48:10;6.30;;;5.40;;
70970;SDS011;58632;51.718;19.446;2022-09-09T09:50:50;6.10;;;5.50;;
70970;SDS011;58632;51.718;19.446;2022-09-09T09:53:21;6.10;;;5.50;;
70970;SDS011;58632;51.718;19.446;2022-09-09T09:58:23;6.80;;;5.10;;
70970;SDS011;58632;51.718;19.446;2022-09-09T10:00:54;7.20;;;4.80;;
70970;SDS011;58632;51.718;19.446;2022-09-09T10:03:23;7.70;;;4.30;;
70970;SDS011;58632;51.718;19.446;2022-09-09T10:05:53;4.90;;;4.10;;
70970;SDS011;58632;51.718;19.446;2022-09-09T10:08:22;5.20;;;4.20;;
70970;SDS011;58632;51.718;19.446;2022-09-09T10:19:02;5.70;;;4.50;;
70970;SDS011;58632;51.718;19.446;2022-09-09T10:21:36;5.10;;;4.40;;
70970;SDS011;58632;51.718;19.446;2022-09-09T10:46:11;5.40;;;4.20;;
70970;SDS011;58632;51.718;19.446;2022-09-09T10:48:55;5.80;;;4.00;;
70970;SDS011;58632;51.718;19.446;2022-09-09T10:52:01;5.70;;;4.10;;
70970;SDS011;58632;51.718;19.446;2022-09-09T10:55:16;4.80;;;3.90;;
70970;SDS011;58632;51.718;19.446;2022-09-09T11:00:19;6.50;;;4.30;;
70970;SDS011;58632;51.718;19.446;2022-09-09T11:02:56;5.50;;;3.80;;
70970;SDS011;58632;51.718;19.446;2022-09-09T11:05:39;5.30;;;4.10;;
70970;SDS011;58632;51.718;19.446;2022-09-09T11:08:34;5.50;;;4.20;;
70970;SDS011;58632;51.718;19.446;2022-09-09T11:11:04;5.40;;;4.40;;
70970;SDS011;58632;51.718;19.446;2022-09-09T11:16:29;6.90;;;4.30;;
70970;SDS011;58632;51.718;19.446;2022-09-09T11:19:19;5.50;;;4.50;;
70970;SDS011;58632;51.718;19.446;2022-09-09T11:24:54;5.80;;;4.10;;
70970;SDS011;58632;51.718;19.446;2022-09-09T11:27:32;4.30;;;3.40;;
70970;SDS011;58632;51.718;19.446;2022-09-09T11:30:30;5.60;;;3.50;;
70970;SDS011;58632;51.718;19.446;2022-09-09T11:38:52;5.20;;;3.10;;
70970;SDS011;58632;51.718;19.446;2022-09-09T11:41:33;5.70;;;3.50;;
70970;SDS011;58632;51.718;19.446;2022-09-09T11:44:08;5.50;;;3.50;;
70970;SDS011;58632;51.718;19.446;2022-09-09T11:46:37;5.50;;;3.20;;
70970;SDS011;58632;51.718;19.446;2022-09-09T11:49:05;4.40;;;3.30;;
70970;SDS011;58632;51.718;19.446;2022-09-09T11:51:32;3.70;;;2.80;;
70970;SDS011;58632;51.718;19.446;2022-09-09T11:54:01;4.00;;;3.10;;
70970;SDS011;58632;51.718;19.446;2022-09-09T11:56:48;4.60;;;2.90;;
70970;SDS011;58632;51.718;19.446;2022-09-09T12:02:22;5.10;;;2.90;;
70970;SDS011;58632;51.718;19.446;2022-09-09T12:04:46;4.20;;;2.50;;
70970;SDS011;58632;51.718;19.446;2022-09-09T12:09:52;3.80;;;2.40;;
70970;SDS011;58632;51.718;19.446;2022-09-09T12:12:27;3.20;;;2.30;;
70970;SDS011;58632;51.718;19.446;2022-09-09T12:17:37;3.10;;;2.50;;
70970;SDS011;58632;51.718;19.446;2022-09-09T12:25:55;3.10;;;2.40;;
70970;SDS011;58632;51.718;19.446;2022-09-09T12:33:35;4.40;;;2.30;;
70970;SDS011;58632;51.718;19.446;2022-09-09T12:36:05;3.40;;;2.40;;
70970;SDS011;58632;51.718;19.446;2022-09-09T12:38:38;4.00;;;2.50;;
70970;SDS011;58632;51.718;19.446;2022-09-09T12:41:05;3.90;;;2.60;;
70970;SDS011;58632;51.718;19.446;2022-09-09T12:43:31;2.70;;;2.10;;
70970;SDS011;58632;51.718;19.446;2022-09-09T12:45:59;4.10;;;2.40;;
70970;SDS011;58632;51.718;19.446;2022-09-09T12:48:36;3.40;;;2.40;;
70970;SDS011;58632;51.718;19.446;2022-09-09T12:51:29;3.10;;;2.10;;
70970;SDS011;58632;51.718;19.446;2022-09-09T12:53:56;4.10;;;2.10;;
70970;SDS011;58632;51.718;19.446;2022-09-09T12:56:30;4.00;;;2.70;;
70970;SDS011;58632;51.718;19.446;2022-09-09T12:58:57;2.80;;;2.20;;
70970;SDS011;58632;51.718;19.446;2022-09-09T13:01:25;3.10;;;2.20;;
70970;SDS011;58632;51.718;19.446;2022-09-09T13:03:52;3.50;;;2.30;;
70970;SDS011;58632;51.718;19.446;2022-09-09T13:06:19;3.40;;;2.30;;
70970;SDS011;58632;51.718;19.446;2022-09-09T13:08:53;5.10;;;2.20;;
70970;SDS011;58632;51.718;19.446;2022-09-09T13:11:21;3.30;;;2.10;;
70970;SDS011;58632;51.718;19.446;2022-09-09T13:13:54;3.70;;;1.80;;
70970;SDS011;58632;51.718;19.446;2022-09-09T13:16:23;3.30;;;2.20;;
70970;SDS011;58632;51.718;19.446;2022-09-09T13:18:57;3.90;;;2.00;;
70970;SDS011;58632;51.718;19.446;2022-09-09T13:21:35;2.40;;;2.00;;
70970;SDS011;58632;51.718;19.446;2022-09-09T13:24:03;5.00;;;2.30;;
70970;SDS011;58632;51.718;19.446;2022-09-09T13:26:32;3.30;;;2.00;;
70970;SDS011;58632;51.718;19.446;2022-09-09T13:29:14;4.60;;;1.80;;
70970;SDS011;58632;51.718;19.446;2022-09-09T13:31:43;3.40;;;1.90;;
70970;SDS011;58632;51.718;19.446;2022-09-09T13:34:13;3.90;;;2.00;;
70970;SDS011;58632;51.718;19.446;2022-09-09T13:36:52;2.80;;;1.70;;
70970;SDS011;58632;51.718;19.446;2022-09-09T13:39:24;2.90;;;2.10;;
70970;SDS011;58632;51.718;19.446;2022-09-09T13:41:49;2.90;;;2.00;;
70970;SDS011;58632;51.718;19.446;2022-09-09T13:44:17;3.70;;;1.80;;
70970;SDS011;58632;51.718;19.446;2022-09-09T13:47:16;3.20;;;1.60;;
70970;SDS011;58632;51.718;19.446;2022-09-09T13:49:45;2.80;;;1.70;;
70970;SDS011;58632;51.718;19.446;2022-09-09T13:52:15;3.60;;;1.70;;
70970;SDS011;58632;51.718;19.446;2022-09-09T13:54:42;2.60;;;1.60;;
70970;SDS011;58632;51.718;19.446;2022-09-09T13:57:18;2.70;;;1.50;;
70970;SDS011;58632;51.718;19.446;2022-09-09T13:59:45;2.50;;;1.40;;
70970;SDS011;58632;51.718;19.446;2022-09-09T14:02:12;4.00;;;1.80;;
70970;SDS011;58632;51.718;19.446;2022-09-09T14:04:38;2.70;;;1.30;;
70970;SDS011;58632;51.718;19.446;2022-09-09T14:07:08;3.10;;;1.70;;
70970;SDS011;58632;51.718;19.446;2022-09-09T14:09:37;2.50;;;1.50;;
70970;SDS011;58632;51.718;19.446;2022-09-09T14:12:04;2.30;;;1.50;;
70970;SDS011;58632;51.718;19.446;2022-09-09T14:14:30;4.70;;;1.80;;
70970;SDS011;58632;51.718;19.446;2022-09-09T14:16:56;4.10;;;1.60;;
70970;SDS011;58632;51.718;19.446;2022-09-09T14:19:21;3.80;;;1.70;;
70970;SDS011;58632;51.718;19.446;2022-09-09T14:21:48;2.60;;;1.50;;
70970;SDS011;58632;51.718;19.446;2022-09-09T14:24:13;3.20;;;1.60;;
70970;SDS011;58632;51.718;19.446;2022-09-09T14:26:39;2.30;;;1.30;;
70970;SDS011;58632;51.718;19.446;2022-09-09T14:31:31;2.90;;;1.70;;
70970;SDS011;58632;51.718;19.446;2022-09-09T14:33:57;2.40;;;1.50;;
70970;SDS011;58632;51.718;19.446;2022-09-09T14:38:49;3.00;;;1.60;;
70970;SDS011;58632;51.718;19.446;2022-09-09T14:41:17;3.50;;;1.80;;
70970;SDS011;58632;51.718;19.446;2022-09-09T14:43:45;1.80;;;1.50;;
70970;SDS011;58632;51.718;19.446;2022-09-09T14:46:12;3.20;;;1.70;;
70970;SDS011;58632;51.718;19.446;2022-09-09T14:48:40;3.30;;;1.60;;
70970;SDS011;58632;51.718;19.446;2022-09-09T14:53:33;4.00;;;1.70;;
70970;SDS011;58632;51.718;19.446;2022-09-09T14:56:09;2.40;;;1.30;;
70970;SDS011;58632;51.718;19.446;2022-09-09T14:58:39;2.50;;;1.40;;
70970;SDS011;58632;51.718;19.446;2022-09-09T15:01:06;3.30;;;1.70;;
70970;SDS011;58632;51.718;19.446;2022-09-09T15:03:36;3.30;;;1.70;;
70970;SDS011;58632;51.718;19.446;2022-09-09T15:06:11;3.00;;;1.40;;
70970;SDS011;58632;51.718;19.446;2022-09-09T15:08:39;2.80;;;1.50;;
70970;SDS011;58632;51.718;19.446;2022-09-09T15:11:06;2.10;;;1.50;;
70970;SDS011;58632;51.718;19.446;2022-09-09T15:13:33;2.40;;;1.70;;
70970;SDS011;58632;51.718;19.446;2022-09-09T15:16:06;3.90;;;1.90;;
70970;SDS011;58632;51.718;19.446;2022-09-09T15:18:33;5.30;;;2.00;;
70970;SDS011;58632;51.718;19.446;2022-09-09T15:23:26;2.50;;;1.80;;
70970;SDS011;58632;51.718;19.446;2022-09-09T15:25:53;2.70;;;1.80;;
70970;SDS011;58632;51.718;19.446;2022-09-09T15:28:20;4.30;;;1.60;;
70970;SDS011;58632;51.718;19.446;2022-09-09T15:30:49;3.90;;;1.70;;
70970;SDS011;58632;51.718;19.446;2022-09-09T15:33:17;3.80;;;2.60;;
70970;SDS011;58632;51.718;19.446;2022-09-09T15:35:43;2.30;;;1.60;;
70970;SDS011;58632;51.718;19.446;2022-09-09T15:38:09;2.10;;;1.60;;
70970;SDS011;58632;51.718;19.446;2022-09-09T15:40:35;2.30;;;1.70;;
70970;SDS011;58632;51.718;19.446;2022-09-09T15:43:01;3.30;;;2.00;;
70970;SDS011;58632;51.718;19.446;2022-09-09T15:45:30;2.10;;;1.70;;
70970;SDS011;58632;51.718;19.446;2022-09-09T15:47:57;3.40;;;2.10;;
70970;SDS011;58632;51.718;19.446;2022-09-09T15:50:23;5.80;;;2.60;;
70970;SDS011;58632;51.718;19.446;2022-09-09T15:52:48;5.20;;;2.30;;
70970;SDS011;58632;51.718;19.446;2022-09-09T15:55:14;5.50;;;2.70;;
70970;SDS011;58632;51.718;19.446;2022-09-09T15:57:40;5.40;;;2.70;;
70970;SDS011;58632;51.718;19.446;2022-09-09T16:00:06;4.40;;;3.10;;
70970;SDS011;58632;51.718;19.446;2022-09-09T16:02:33;7.60;;;3.20;;
70970;SDS011;58632;51.718;19.446;2022-09-09T16:04:59;4.10;;;2.90;;
70970;SDS011;58632;51.718;19.446;2022-09-09T16:07:26;4.90;;;3.00;;
70970;SDS011;58632;51.718;19.446;2022-09-09T16:09:52;8.10;;;3.40;;
70970;SDS011;58632;51.718;19.446;2022-09-09T16:14:44;3.80;;;3.00;;
70970;SDS011;58632;51.718;19.446;2022-09-09T16:17:10;6.10;;;3.00;;
70970;SDS011;58632;51.718;19.446;2022-09-09T16:19:36;5.40;;;3.30;;
70970;SDS011;58632;51.718;19.446;2022-09-09T16:22:02;5.10;;;3.00;;
70970;SDS011;58632;51.718;19.446;2022-09-09T16:24:29;4.70;;;3.30;;
70970;SDS011;58632;51.718;19.446;2022-09-09T16:26:55;5.10;;;3.70;;
70970;SDS011;58632;51.718;19.446;2022-09-09T16:29:21;8.20;;;3.40;;
70970;SDS011;58632;51.718;19.446;2022-09-09T16:34:14;5.40;;;3.70;;
70970;SDS011;58632;51.718;19.446;2022-09-09T16:36:42;5.30;;;4.00;;
70970;SDS011;58632;51.718;19.446;2022-09-09T16:39:10;5.50;;;3.60;;
70970;SDS011;58632;51.718;19.446;2022-09-09T16:41:38;5.60;;;3.90;;
70970;SDS011;58632;51.718;19.446;2022-09-09T16:44:08;7.70;;;3.90;;
70970;SDS011;58632;51.718;19.446;2022-09-09T16:46:36;4.70;;;3.70;;
70970;SDS011;58632;51.718;19.446;2022-09-09T16:49:10;6.40;;;3.80;;
70970;SDS011;58632;51.718;19.446;2022-09-09T16:51:41;9.10;;;4.30;;
70970;SDS011;58632;51.718;19.446;2022-09-09T16:54:13;5.70;;;4.00;;
70970;SDS011;58632;51.718;19.446;2022-09-09T16:56:42;6.60;;;3.80;;
70970;SDS011;58632;51.718;19.446;2022-09-09T16:59:10;7.40;;;3.80;;
70970;SDS011;58632;51.718;19.446;2022-09-09T17:01:39;6.30;;;4.40;;
70970;SDS011;58632;51.718;19.446;2022-09-09T17:04:10;6.20;;;4.20;;
70970;SDS011;58632;51.718;19.446;2022-09-09T17:06:48;6.60;;;4.00;;
70970;SDS011;58632;51.718;19.446;2022-09-09T17:09:15;5.80;;;4.70;;